PWSweather.com
Personal Weather Stations
Station Observations
RIDGERUN
Ridge Run Park, West Bend, WI 53095

Ridge Run ParkWest Bend, WI 53095

Lat: 43.42132, Lon: -88.211499

Elevation: 932

Station Type: Davis Vantage Pro2

http://www.ridgerun.us

Latest ConditionsUpdated 2:52:29 PM CST Sunday, Jan 19, 2020
Currently Today's Max Today's Min Today's Average
Temperature 20.6°F-6.3°C 20.7°F-6.3°C 1.3°F-17.1°C 8.4°F-13.1°C
Dew Point 12.7°F-10.7°C 12.8°F-10.7°C -4.0°F-20.0°C 2.7°F-16.3°C
Winds Calm Calm Calm -Calm - - Calm Calm
Wind Gusts -- -- - -
Humidity 71% 81% 70% 77%
Pressure 30.79 in1042.7 mb 30.79 in1042.7 mb 30.35 in1027.8 mb -
Hour Temp Dew Point Humidity Winds Wind Gusts Pressure Precip Precip Rate Daily Precip Total
02:52 PM 20.6°F-6.3°C 12.7°F-10.7°C 71% Calm Calm -- 30.79 in1042.7 mb 0.00 in0.0 mm 0.00 in0.0 mm 0.00 in0.0 mm
02:44 PM 20.7°F-6.3°C 12.8°F-10.7°C 71% Calm Calm -- 30.78 in1042.3 mb 0.00 in0.0 mm 0.00 in0.0 mm 0.00 in0.0 mm
02:36 PM 20.7°F-6.3°C 12.5°F-10.8°C 70% Calm Calm -- 30.78 in1042.3 mb 0.00 in0.0 mm 0.00 in0.0 mm 0.00 in0.0 mm
02:28 PM 20.5°F-6.4°C 12.6°F-10.8°C 71% Calm Calm -- 30.77 in1042.0 mb 0.00 in0.0 mm 0.00 in0.0 mm 0.00 in0.0 mm
02:20 PM 20.1°F-6.6°C 12.2°F-11.0°C 71% Calm Calm -- 30.77 in1042.0 mb 0.00 in0.0 mm 0.00 in0.0 mm 0.00 in0.0 mm
02:12 PM 20.0°F-6.7°C 11.8°F-11.2°C 70% Calm Calm -- 30.76 in1041.7 mb 0.00 in0.0 mm 0.00 in0.0 mm 0.00 in0.0 mm
02:04 PM 20.1°F-6.6°C 11.9°F-11.2°C 70% Calm Calm -- 30.76 in1041.7 mb 0.00 in0.0 mm 0.00 in0.0 mm 0.00 in0.0 mm
01:56 PM 20.0°F-6.7°C 11.8°F-11.2°C 70% Calm Calm -- 30.76 in1041.7 mb 0.00 in0.0 mm 0.00 in0.0 mm 0.00 in0.0 mm
01:48 PM 19.8°F-6.8°C 11.9°F-11.2°C 71% Calm Calm -- 30.76 in1041.7 mb 0.00 in0.0 mm 0.00 in0.0 mm 0.00 in0.0 mm
01:40 PM 19.8°F-6.8°C 11.9°F-11.2°C 71% Calm Calm -- 30.76 in1041.7 mb 0.00 in0.0 mm 0.00 in0.0 mm 0.00 in0.0 mm
01:32 PM 19.9°F-6.7°C 11.7°F-11.3°C 70% Calm Calm -- 30.75 in1041.3 mb 0.00 in0.0 mm 0.00 in0.0 mm 0.00 in0.0 mm
01:24 PM 20.1°F-6.6°C 12.2°F-11.0°C 71% Calm Calm -- 30.75 in1041.3 mb 0.00 in0.0 mm 0.00 in0.0 mm 0.00 in0.0 mm
01:16 PM 19.6°F-6.9°C 12.0°F-11.1°C 72% Calm Calm -- 30.75 in1041.3 mb 0.00 in0.0 mm 0.00 in0.0 mm 0.00 in0.0 mm
01:08 PM 18.9°F-7.3°C 11.4°F-11.4°C 72% Calm Calm -- 30.74 in1041.0 mb 0.00 in0.0 mm 0.00 in0.0 mm 0.00 in0.0 mm
01:00 PM 18.6°F-7.4°C 11.1°F-11.6°C 72% Calm Calm -- 30.74 in1041.0 mb 0.00 in0.0 mm 0.00 in0.0 mm 0.00 in0.0 mm
12:52 PM 18.7°F-7.4°C 10.9°F-11.7°C 71% Calm Calm -- 30.74 in1041.0 mb 0.00 in0.0 mm 0.00 in0.0 mm 0.00 in0.0 mm
12:44 PM 18.7°F-7.4°C 11.2°F-11.6°C 72% Calm Calm -- 30.74 in1041.0 mb 0.00 in0.0 mm 0.00 in0.0 mm 0.00 in0.0 mm
12:36 PM 18.0°F-7.8°C 10.8°F-11.8°C 73% Calm Calm -- 30.74 in1041.0 mb 0.00 in0.0 mm 0.00 in0.0 mm 0.00 in0.0 mm
12:28 PM 17.5°F-8.1°C 10.3°F-12.1°C 73% Calm Calm -- 30.74 in1041.0 mb 0.00 in0.0 mm 0.00 in0.0 mm 0.00 in0.0 mm
12:20 PM 17.0°F-8.3°C 9.8°F-12.3°C 73% Calm Calm -- 30.74 in1041.0 mb 0.00 in0.0 mm 0.00 in0.0 mm 0.00 in0.0 mm
12:12 PM 16.7°F-8.5°C 9.5°F-12.5°C 73% Calm Calm -- 30.73 in1040.6 mb 0.00 in0.0 mm 0.00 in0.0 mm 0.00 in0.0 mm
12:04 PM 16.2°F-8.8°C 9.4°F-12.6°C 74% Calm Calm -- 30.73 in1040.6 mb 0.00 in0.0 mm 0.00 in0.0 mm 0.00 in0.0 mm
11:56 AM 15.9°F-8.9°C 9.1°F-12.7°C 74% Calm Calm -- 30.73 in1040.6 mb 0.00 in0.0 mm 0.00 in0.0 mm 0.00 in0.0 mm
11:48 AM 15.5°F-9.2°C 9.0°F-12.8°C 75% Calm Calm -- 30.72 in1040.3 mb 0.00 in0.0 mm 0.00 in0.0 mm 0.00 in0.0 mm
11:40 AM 15.1°F-9.4°C 8.9°F-12.8°C 76% Calm Calm -- 30.72 in1040.3 mb 0.00 in0.0 mm 0.00 in0.0 mm 0.00 in0.0 mm
11:32 AM 14.6°F-9.7°C 8.4°F-13.1°C 76% Calm Calm -- 30.72 in1040.3 mb 0.00 in0.0 mm 0.00 in0.0 mm 0.00 in0.0 mm
11:24 AM 14.3°F-9.8°C 8.1°F-13.3°C 76% Calm Calm -- 30.72 in1040.3 mb 0.00 in0.0 mm 0.00 in0.0 mm 0.00 in0.0 mm
11:16 AM 14.0°F-10.0°C 7.8°F-13.4°C 76% Calm Calm -- 30.72 in1040.3 mb 0.00 in0.0 mm 0.00 in0.0 mm 0.00 in0.0 mm
11:08 AM 14.0°F-10.0°C 8.1°F-13.3°C 77% Calm Calm -- 30.71 in1040.0 mb 0.00 in0.0 mm 0.00 in0.0 mm 0.00 in0.0 mm
11:00 AM 13.6°F-10.2°C 7.7°F-13.5°C 77% Calm Calm -- 30.71 in1040.0 mb 0.00 in0.0 mm 0.00 in0.0 mm 0.00 in0.0 mm
10:52 AM 13.2°F-10.4°C 7.3°F-13.7°C 77% Calm Calm -- 30.71 in1040.0 mb 0.00 in0.0 mm 0.00 in0.0 mm 0.00 in0.0 mm
10:44 AM 12.8°F-10.7°C 6.9°F-13.9°C 77% Calm Calm -- 30.70 in1039.6 mb 0.00 in0.0 mm 0.00 in0.0 mm 0.00 in0.0 mm
10:36 AM 12.4°F-10.9°C 6.6°F-14.1°C 77% Calm Calm -- 30.70 in1039.6 mb 0.00 in0.0 mm 0.00 in0.0 mm 0.00 in0.0 mm
10:28 AM 12.0°F-11.1°C 6.5°F-14.2°C 78% Calm Calm -- 30.70 in1039.6 mb 0.00 in0.0 mm 0.00 in0.0 mm 0.00 in0.0 mm
10:20 AM 11.6°F-11.3°C 6.3°F-14.3°C 79% Calm Calm -- 30.70 in1039.6 mb 0.00 in0.0 mm 0.00 in0.0 mm 0.00 in0.0 mm
10:12 AM 10.7°F-11.8°C 5.5°F-14.7°C 79% Calm Calm -- 30.69 in1039.3 mb 0.00 in0.0 mm 0.00 in0.0 mm 0.00 in0.0 mm
10:04 AM 9.8°F-12.3°C 4.6°F-15.2°C 79% Calm Calm -- 30.69 in1039.3 mb 0.00 in0.0 mm 0.00 in0.0 mm 0.00 in0.0 mm
09:56 AM 9.3°F-12.6°C 4.1°F-15.5°C 79% Calm Calm -- 30.68 in1038.9 mb 0.00 in0.0 mm 0.00 in0.0 mm 0.00 in0.0 mm
09:48 AM 8.8°F-12.9°C 3.6°F-15.8°C 79% Calm Calm -- 30.67 in1038.6 mb 0.00 in0.0 mm 0.00 in0.0 mm 0.00 in0.0 mm
09:40 AM 8.5°F-13.1°C 3.3°F-15.9°C 79% Calm Calm -- 30.67 in1038.6 mb 0.00 in0.0 mm 0.00 in0.0 mm 0.00 in0.0 mm
09:32 AM 8.2°F-13.2°C 3.0°F-16.1°C 79% Calm Calm -- 30.66 in1038.3 mb 0.00 in0.0 mm 0.00 in0.0 mm 0.00 in0.0 mm
09:24 AM 8.1°F-13.3°C 2.9°F-16.2°C 79% Calm Calm -- 30.66 in1038.3 mb 0.00 in0.0 mm 0.00 in0.0 mm 0.00 in0.0 mm
09:16 AM 8.2°F-13.2°C 3.0°F-16.1°C 79% Calm Calm -- 30.66 in1038.3 mb 0.00 in0.0 mm 0.00 in0.0 mm 0.00 in0.0 mm
09:08 AM 8.1°F-13.3°C 3.2°F-16.0°C 80% Calm Calm -- 30.65 in1037.9 mb 0.00 in0.0 mm 0.00 in0.0 mm 0.00 in0.0 mm
09:00 AM 7.8°F-13.4°C 2.9°F-16.2°C 80% Calm Calm -- 30.65 in1037.9 mb 0.00 in0.0 mm 0.00 in0.0 mm 0.00 in0.0 mm
08:52 AM 7.4°F-13.7°C 2.5°F-16.4°C 80% Calm Calm -- 30.64 in1037.6 mb 0.00 in0.0 mm 0.00 in0.0 mm 0.00 in0.0 mm
08:44 AM 7.0°F-13.9°C 2.4°F-16.4°C 81% Calm Calm -- 30.64 in1037.6 mb 0.00 in0.0 mm 0.00 in0.0 mm 0.00 in0.0 mm
08:36 AM 6.8°F-14.0°C 1.9°F-16.7°C 80% Calm Calm -- 30.64 in1037.6 mb 0.00 in0.0 mm 0.00 in0.0 mm 0.00 in0.0 mm
08:28 AM 6.6°F-14.1°C 1.7°F-16.8°C 80% Calm Calm -- 30.63 in1037.3 mb 0.00 in0.0 mm 0.00 in0.0 mm 0.00 in0.0 mm
08:20 AM 6.5°F-14.2°C 1.9°F-16.7°C 81% Calm Calm -- 30.63 in1037.3 mb 0.00 in0.0 mm 0.00 in0.0 mm 0.00 in0.0 mm
08:12 AM 6.2°F-14.3°C 1.4°F-17.0°C 80% Calm Calm -- 30.63 in1037.3 mb 0.00 in0.0 mm 0.00 in0.0 mm 0.00 in0.0 mm
08:04 AM 6.0°F-14.4°C 1.2°F-17.1°C 80% Calm Calm -- 30.62 in1036.9 mb 0.00 in0.0 mm 0.00 in0.0 mm 0.00 in0.0 mm
07:56 AM 5.8°F-14.6°C 1.2°F-17.1°C 81% Calm Calm -- 30.62 in1036.9 mb 0.00 in0.0 mm 0.00 in0.0 mm 0.00 in0.0 mm
07:48 AM 5.6°F-14.7°C 1.0°F-17.2°C 81% Calm Calm -- 30.61 in1036.6 mb 0.00 in0.0 mm 0.00 in0.0 mm 0.00 in0.0 mm
07:40 AM 5.3°F-14.8°C 0.7°F-17.4°C 81% Calm Calm -- 30.61 in1036.6 mb 0.00 in0.0 mm 0.00 in0.0 mm 0.00 in0.0 mm
07:32 AM 5.0°F-15.0°C 0.4°F-17.6°C 81% Calm Calm -- 30.61 in1036.6 mb 0.00 in0.0 mm 0.00 in0.0 mm 0.00 in0.0 mm
07:24 AM 4.8°F-15.1°C 0.0°F-17.8°C 80% Calm Calm -- 30.60 in1036.2 mb 0.00 in0.0 mm 0.00 in0.0 mm 0.00 in0.0 mm
07:16 AM 4.6°F-15.2°C -0.2°F-17.9°C 80% Calm Calm -- 30.59 in1035.9 mb 0.00 in0.0 mm 0.00 in0.0 mm 0.00 in0.0 mm
07:08 AM 4.4°F-15.3°C -0.1°F-17.8°C 81% Calm Calm -- 30.59 in1035.9 mb 0.00 in0.0 mm 0.00 in0.0 mm 0.00 in0.0 mm
07:00 AM 4.1°F-15.5°C -0.7°F-18.2°C 80% Calm Calm -- 30.58 in1035.6 mb 0.00 in0.0 mm 0.00 in0.0 mm 0.00 in0.0 mm
06:52 AM 3.9°F-15.6°C -0.9°F-18.3°C 80% Calm Calm -- 30.58 in1035.6 mb 0.00 in0.0 mm 0.00 in0.0 mm 0.00 in0.0 mm
06:44 AM 3.8°F-15.7°C -1.0°F-18.3°C 80% Calm Calm -- 30.57 in1035.2 mb 0.00 in0.0 mm 0.00 in0.0 mm 0.00 in0.0 mm
06:36 AM 3.5°F-15.8°C -1.3°F-18.5°C 80% Calm Calm -- 30.57 in1035.2 mb 0.00 in0.0 mm 0.00 in0.0 mm 0.00 in0.0 mm
06:28 AM 3.3°F-15.9°C -1.5°F-18.6°C 80% Calm Calm -- 30.56 in1034.9 mb 0.00 in0.0 mm 0.00 in0.0 mm 0.00 in0.0 mm
06:20 AM 3.2°F-16.0°C -1.6°F-18.7°C 80% Calm Calm -- 30.56 in1034.9 mb 0.00 in0.0 mm 0.00 in0.0 mm 0.00 in0.0 mm
06:12 AM 3.0°F-16.1°C -1.8°F-18.8°C 80% Calm Calm -- 30.55 in1034.5 mb 0.00 in0.0 mm 0.00 in0.0 mm 0.00 in0.0 mm
06:04 AM 2.9°F-16.2°C -1.9°F-18.8°C 80% Calm Calm -- 30.54 in1034.2 mb 0.00 in0.0 mm 0.00 in0.0 mm 0.00 in0.0 mm
05:56 AM 2.7°F-16.3°C -2.1°F-18.9°C 80% Calm Calm -- 30.54 in1034.2 mb 0.00 in0.0 mm 0.00 in0.0 mm 0.00 in0.0 mm
05:48 AM 2.5°F-16.4°C -2.3°F-19.1°C 80% Calm Calm -- 30.53 in1033.9 mb 0.00 in0.0 mm 0.00 in0.0 mm 0.00 in0.0 mm
05:40 AM 2.5°F-16.4°C -2.3°F-19.1°C 80% Calm Calm -- 30.52 in1033.5 mb 0.00 in0.0 mm 0.00 in0.0 mm 0.00 in0.0 mm
05:32 AM 2.4°F-16.4°C -2.4°F-19.1°C 80% Calm Calm -- 30.51 in1033.2 mb 0.00 in0.0 mm 0.00 in0.0 mm 0.00 in0.0 mm
05:24 AM 2.2°F-16.6°C -2.6°F-19.2°C 80% Calm Calm -- 30.51 in1033.2 mb 0.00 in0.0 mm 0.00 in0.0 mm 0.00 in0.0 mm
05:16 AM 2.1°F-16.6°C -2.7°F-19.3°C 80% Calm Calm -- 30.51 in1033.2 mb 0.00 in0.0 mm 0.00 in0.0 mm 0.00 in0.0 mm
05:08 AM 2.0°F-16.7°C -2.8°F-19.3°C 80% Calm Calm -- 30.50 in1032.8 mb 0.00 in0.0 mm 0.00 in0.0 mm 0.00 in0.0 mm
05:00 AM 1.8°F-16.8°C -2.9°F-19.4°C 80% Calm Calm -- 30.49 in1032.5 mb 0.00 in0.0 mm 0.00 in0.0 mm 0.00 in0.0 mm
04:52 AM 1.7°F-16.8°C -3.3°F-19.6°C 79% Calm Calm -- 30.49 in1032.5 mb 0.00 in0.0 mm 0.00 in0.0 mm 0.00 in0.0 mm
04:44 AM 1.5°F-16.9°C -3.5°F-19.7°C 79% Calm Calm -- 30.48 in1032.2 mb 0.00 in0.0 mm 0.00 in0.0 mm 0.00 in0.0 mm
04:36 AM 1.4°F-17.0°C -3.6°F-19.8°C 79% Calm Calm -- 30.48 in1032.2 mb 0.00 in0.0 mm 0.00 in0.0 mm 0.00 in0.0 mm
04:28 AM 1.4°F-17.0°C -3.6°F-19.8°C 79% Calm Calm -- 30.47 in1031.8 mb 0.00 in0.0 mm 0.00 in0.0 mm 0.00 in0.0 mm
04:20 AM 1.3°F-17.1°C -4.0°F-20.0°C 78% Calm Calm -- 30.47 in1031.8 mb 0.00 in0.0 mm 0.00 in0.0 mm 0.00 in0.0 mm
04:12 AM 1.3°F-17.1°C -4.0°F-20.0°C 78% Calm Calm -- 30.46 in1031.5 mb 0.00 in0.0 mm 0.00 in0.0 mm 0.00 in0.0 mm
04:04 AM 1.4°F-17.0°C -3.9°F-19.9°C 78% Calm Calm -- 30.46 in1031.5 mb 0.00 in0.0 mm 0.00 in0.0 mm 0.00 in0.0 mm
03:56 AM 1.5°F-16.9°C -3.8°F-19.9°C 78% Calm Calm -- 30.46 in1031.5 mb 0.00 in0.0 mm 0.00 in0.0 mm 0.00 in0.0 mm
03:48 AM 1.7°F-16.8°C -3.6°F-19.8°C 78% Calm Calm -- 30.46 in1031.5 mb 0.00 in0.0 mm 0.00 in0.0 mm 0.00 in0.0 mm
03:40 AM 1.8°F-16.8°C -3.5°F-19.7°C 78% Calm Calm -- 30.45 in1031.2 mb 0.00 in0.0 mm 0.00 in0.0 mm 0.00 in0.0 mm
03:32 AM 1.9°F-16.7°C -3.4°F-19.7°C 78% Calm Calm -- 30.45 in1031.2 mb 0.00 in0.0 mm 0.00 in0.0 mm 0.00 in0.0 mm
03:24 AM 2.0°F-16.7°C -3.3°F-19.6°C 78% Calm Calm -- 30.45 in1031.2 mb 0.00 in0.0 mm 0.00 in0.0 mm 0.00 in0.0 mm
03:16 AM 2.1°F-16.6°C -3.2°F-19.6°C 78% Calm Calm -- 30.44 in1030.8 mb 0.00 in0.0 mm 0.00 in0.0 mm 0.00 in0.0 mm
03:08 AM 2.3°F-16.5°C -3.0°F-19.4°C 78% Calm Calm -- 30.43 in1030.5 mb 0.00 in0.0 mm 0.00 in0.0 mm 0.00 in0.0 mm
03:00 AM 2.5°F-16.4°C -2.8°F-19.3°C 78% Calm Calm -- 30.43 in1030.5 mb 0.00 in0.0 mm 0.00 in0.0 mm 0.00 in0.0 mm
02:52 AM 2.7°F-16.3°C -2.6°F-19.2°C 78% Calm Calm -- 30.43 in1030.5 mb 0.00 in0.0 mm 0.00 in0.0 mm 0.00 in0.0 mm
02:44 AM 2.9°F-16.2°C -2.4°F-19.1°C 78% Calm Calm -- 30.43 in1030.5 mb 0.00 in0.0 mm 0.00 in0.0 mm 0.00 in0.0 mm
02:36 AM 3.1°F-16.1°C -2.2°F-19.0°C 78% Calm Calm -- 30.42 in1030.1 mb 0.00 in0.0 mm 0.00 in0.0 mm 0.00 in0.0 mm
02:28 AM 3.3°F-15.9°C -2.0°F-18.9°C 78% Calm Calm -- 30.42 in1030.1 mb 0.00 in0.0 mm 0.00 in0.0 mm 0.00 in0.0 mm
02:20 AM 3.5°F-15.8°C -1.8°F-18.8°C 78% Calm Calm -- 30.42 in1030.1 mb 0.00 in0.0 mm 0.00 in0.0 mm 0.00 in0.0 mm
02:12 AM 3.7°F-15.7°C -1.6°F-18.7°C 78% Calm Calm -- 30.42 in1030.1 mb 0.00 in0.0 mm 0.00 in0.0 mm 0.00 in0.0 mm
02:04 AM 3.9°F-15.6°C -1.4°F-18.6°C 78% Calm Calm -- 30.41 in1029.8 mb 0.00 in0.0 mm 0.00 in0.0 mm 0.00 in0.0 mm
01:56 AM 4.0°F-15.6°C -1.3°F-18.5°C 78% Calm Calm -- 30.40 in1029.5 mb 0.00 in0.0 mm 0.00 in0.0 mm 0.00 in0.0 mm
01:48 AM 4.2°F-15.4°C -1.1°F-18.4°C 78% Calm Calm -- 30.40 in1029.5 mb 0.00 in0.0 mm 0.00 in0.0 mm 0.00 in0.0 mm
01:40 AM 4.3°F-15.4°C -1.0°F-18.3°C 78% Calm Calm -- 30.39 in1029.1 mb 0.00 in0.0 mm 0.00 in0.0 mm 0.00 in0.0 mm
01:32 AM 4.4°F-15.3°C -0.9°F-18.3°C 78% Calm Calm -- 30.39 in1029.1 mb 0.00 in0.0 mm 0.00 in0.0 mm 0.00 in0.0 mm
01:24 AM 4.5°F-15.3°C -0.8°F-18.2°C 78% Calm Calm -- 30.39 in1029.1 mb 0.00 in0.0 mm 0.00 in0.0 mm 0.00 in0.0 mm
01:16 AM 4.5°F-15.3°C -0.8°F-18.2°C 78% Calm Calm -- 30.39 in1029.1 mb 0.00 in0.0 mm 0.00 in0.0 mm 0.00 in0.0 mm
01:08 AM 4.6°F-15.2°C -0.8°F-18.2°C 78% Calm Calm -- 30.38 in1028.8 mb 0.00 in0.0 mm 0.00 in0.0 mm 0.00 in0.0 mm
01:00 AM 4.7°F-15.2°C -0.7°F-18.2°C 78% Calm Calm -- 30.38 in1028.8 mb 0.00 in0.0 mm 0.00 in0.0 mm 0.00 in0.0 mm
12:52 AM 4.9°F-15.1°C -0.5°F-18.1°C 78% Calm Calm -- 30.37 in1028.4 mb 0.00 in0.0 mm 0.00 in0.0 mm 0.00 in0.0 mm
12:44 AM 5.0°F-15.0°C -0.1°F-17.8°C 79% Calm Calm -- 30.37 in1028.4 mb 0.00 in0.0 mm 0.00 in0.0 mm 0.00 in0.0 mm
12:36 AM 5.2°F-14.9°C 0.1°F-17.7°C 79% Calm Calm -- 30.37 in1028.4 mb 0.00 in0.0 mm 0.00 in0.0 mm 0.00 in0.0 mm
12:28 AM 5.3°F-14.8°C 0.2°F-17.7°C 79% Calm Calm -- 30.37 in1028.4 mb 0.00 in0.0 mm 0.00 in0.0 mm 0.00 in0.0 mm
12:20 AM 5.5°F-14.7°C 0.1°F-17.7°C 78% Calm Calm -- 30.36 in1028.1 mb 0.00 in0.0 mm 0.00 in0.0 mm 0.00 in0.0 mm
12:12 AM 5.7°F-14.6°C 0.3°F-17.6°C 78% Calm Calm -- 30.36 in1028.1 mb 0.00 in0.0 mm 0.00 in0.0 mm 0.00 in0.0 mm
12:04 AM 5.9°F-14.5°C 0.8°F-17.3°C 79% Calm Calm -- 30.35 in1027.8 mb 0.00 in0.0 mm 0.00 in0.0 mm 0.00 in0.0 mm